Paradise Valley, Nevada Weather observations

Data are for 10 minute period ending at time listed.
 Day   Time   Solar   Ave.   Ave.  Ave.  Vector  Max.   Baro.   Total    
  of    of     Rad.   Air    Rel.  Wind   Wind   Wind  Press.  Precip.   
Year   Day            Temp.  Hum.  Speed  Dir.   Gust                    
2014   (PST)  Kw/m2    F      %     mph   deg.    mph    mb.     in.     
-------------------------------------------------------------------------
 273   11:50   0.84   61.5    55   10.8   309    18.3   864.2    0.00 
 273   12:00   0.69   61.6    53   11.1   296    15.2   864.2    0.00 
 273   12:10   0.80   61.6    54   10.5   313    15.1   864.2    0.00 
 273   12:20   0.85   61.8    53   10.3   321    16.4   864.2    0.00 
 273   12:30   0.58   60.8    57   13.2   309    19.4   864.2    0.00 
 273   12:40   0.68   60.9    54   11.0   304    17.0   864.2    0.00 
 273   12:50   0.55   61.0    52   12.4   304    17.1   864.1    0.00 
 273   13:00   0.38   60.6    53   11.0   324    18.9   864.0    0.00 
 273   13:10   0.34   60.2    52   10.4   322    16.5   864.0    0.00 
 273   13:20   0.56   60.6    53   13.3   336    17.8   863.9    0.00 
 273   13:30   0.77   61.5    52   11.4   334    16.1   863.8    0.00 
 273   13:40   0.72   61.7    51   11.9   352    17.6   863.7    0.00 
 273   13:50   0.55   61.2    48   11.2   334    19.4   863.7    0.00 
 273   14:00   0.23   60.7    49   11.8   344    17.5   863.7    0.00 
 273   14:10   0.25   60.1    49   16.2   330    23.7   863.6    0.00 
 273   14:20   0.65   61.2    48   14.5   334    21.7   863.6    0.00 
 273   14:30   0.58   61.4    48   14.5   333    21.0   863.5    0.00 
 273   14:40   0.55   61.4    48   15.4   324    21.1   863.6    0.00 
 273   14:50   0.52   61.1    46   17.1   319    23.8   863.6    0.00 
 273   15:00   0.49   60.8    46   16.5   317    22.1   863.7    0.00 
 273   15:10   0.46   60.8    45   14.2   321    19.7   863.8    0.00 
 273   15:20   0.43   60.8    44   15.1   314    20.8   863.8    0.00 
 273   15:30   0.40   60.4    40   15.7   316    21.0   863.9    0.00 
 273   15:40   0.36   60.2    41   14.7   310    21.6   863.9    0.00 
 273   15:50   0.33   60.2    40   13.8   315    18.5   863.9    0.00 
 273   16:00   0.30   59.8    40   14.8   317    19.4   863.8    0.00 
 273   16:10   0.26   59.7    42   11.0   311    16.2   863.9    0.00 
 273   16:20   0.23   59.4    40   13.2   313    18.6   863.9    0.00 
 273   16:30   0.20   58.9    42   13.1   316    18.8   863.9    0.00 
 273   16:40   0.16   58.4    44   13.1   326    18.5   863.8    0.00 
 273   16:50   0.13   57.6    47   13.7   335    18.0   863.9    0.00 
 273   17:00   0.07   56.9    47   13.0   326    18.0   864.0    0.00 
 273   17:10   0.02   55.3    49   12.8   327    17.3   864.1    0.00 
 273   17:20   0.02   54.9    49   16.3   327    20.5   864.1    0.00 
 273   17:30   0.01   54.3    49   15.2   326    20.0   864.0    0.00 
 273   17:40   0.01   53.8    49   15.0   322    23.4   864.1    0.00 
 273   17:50   0.00   53.2    50   12.4   322    16.4   864.1    0.00 
 273   18:00   0.00   52.7    52   10.9   318    15.5   864.1    0.00 
 273   18:10   0.00   51.9    53   10.8   332    16.5   864.3    0.00 
 273   18:20   0.00   51.3    55   10.4   338    15.0   864.6    0.00 
 273   18:30   0.00   50.0    58    8.2   345    11.2   864.8    0.00 
 273   18:40   0.00   49.8    57    9.4   343    12.3   864.9    0.00 
 273   18:50   0.00   49.1    59    8.9   348    12.1   865.1    0.00 
 273   19:00   0.00   48.4    61    7.5   345    11.0   865.3    0.00 
 273   19:10   0.00   48.8    58    8.0   330    11.3   865.4    0.00 
 273   19:20   0.00   48.8    57    6.9   335     9.8   865.5    0.00 
 273   19:30   0.00   48.0    61    5.9    13     8.0   865.7    0.00 
 273   19:40   0.00   46.7    67    6.4    11     8.1   865.8    0.00 
 273   19:50   0.00   48.1    62    8.7   344    13.9   865.8    0.00 
 273   20:00   0.00   47.0    65    6.5   348     8.8   865.9    0.00 
 273   20:10   0.00   46.7    65    6.1    22     7.6   866.0    0.00 
 273   20:20   0.00   46.5    65    6.5    36     7.8   866.0    0.00 
 273   20:30   0.00   47.7    60    5.5    48     7.5   866.0    0.00 
 273   20:40   0.00   46.7    64    3.7   348     6.5   866.1    0.00 
 273   20:50   0.00   44.0    72    4.6   313     6.1   866.2    0.00 
 273   21:00   0.00   43.5    73    3.3   314     4.9   866.2    0.00 
 273   21:10   0.00   43.4    72    3.0   291     4.0   866.2    0.00 
 273   21:20   0.00   42.7    74    2.9   293     4.4   866.3    0.00 
 273   21:30   0.00   42.2    74    2.3   290     3.7   866.4    0.00 
 273   21:40   0.00   42.7    72    2.4   278     3.7   866.4    0.00 
 273   21:50   0.00   42.9    71    2.0   295     3.6   866.4    0.00 
 273   22:00   0.00   43.2    69    2.6   284     3.9   866.4    0.00 
 273   22:10   0.00   42.6    70    3.9   265     5.3   866.4    0.00 
 273   22:20   0.00   40.7    76    4.7   257     5.3   866.5    0.00 
 273   22:30   0.00   40.0    78    4.4   259     5.4   866.5    0.00 
 273   22:40   0.00   39.4    81    4.2   260     4.7   866.5    0.00 
 273   22:50   0.00   39.8    79    4.9   260     5.4   866.5    0.00 
 273   23:00   0.00   39.3    79    4.7   243     6.2   866.5    0.00 
 273   23:10   0.00   38.5    83    3.1   253     5.1   866.6    0.00 
 273   23:20   0.00   39.7    79    1.4   257     2.3   866.6    0.00 
 273   23:30   0.00   38.7    79    3.4   250     4.6   866.7    0.00 
 273   23:40   0.00   39.0    79    2.4   259     4.1   866.7    0.00 
 273   23:50   0.00   38.4    79    2.4   254     2.9   866.9    0.00 
 274    0:00   0.00   38.6    78    0.4   274     2.1   866.9    0.00 
 274    0:10   0.00   38.9    78    0.2   353     0.9   866.9    0.00 
 274    0:20   0.00   36.6    82    3.5   268     4.8   866.9    0.00 
 274    0:30   0.00   36.2    84    4.0   257     5.3   867.0    0.00 
 274    0:40   0.00   35.4    86    4.8   254     5.8   867.1    0.00 
 274    0:50   0.00   35.8    86    2.8   239     3.9   867.2    0.00 
 274    1:00   0.00   35.1    85    3.2   248     5.6   867.3    0.00 
 274    1:10   0.00   33.5    89    4.9   255     5.6   867.3    0.00 
 274    1:20   0.00   33.7    91    2.3   263     4.2   867.3    0.00 
 274    1:30   0.00   34.3    89    2.9   273     4.5   867.4    0.00 
 274    1:40   0.00   35.4    89    1.0   277     3.0   867.4    0.00 
 274    1:50   0.00   35.6    85    3.1   267     4.5   867.4    0.00 
 274    2:00   0.00   35.0    87    2.0   284     3.2   867.5    0.00 
 274    2:10   0.00   34.7    87    2.9   253     5.0   867.7    0.00 
 274    2:20   0.00   33.5    88    0.9   225     2.3   867.7    0.00 
 274    2:30   0.00   33.5    90    1.3   286     3.4   867.7    0.00 
 274    2:40   0.00   32.9    90    2.5   292     5.0   867.8    0.00 
 274    2:50   0.00   34.6    91    2.6   327     3.6   867.8    0.00 
 274    3:00   0.00   36.0    87    1.9   331     3.7   867.9    0.00 
 274    3:10   0.00   35.9    85    0.6   355     1.9   868.1    0.00 
 274    3:20   0.00   34.8    87    2.9   183     5.3   868.3    0.00 
 274    3:30   0.00   35.7    86    2.4   276     3.6   868.4    0.00 
 274    3:40   0.00   35.9    84    2.3     1     6.4   868.4    0.00 
 274    3:50   0.00   37.1    82    0.7     5     2.9   868.5    0.00 
 274    4:00   0.00   37.2    81    0.5   334     1.9   868.5    0.00 
 274    4:10   0.00   36.8    80    0.1     5     1.3   868.6    0.00 
 274    4:20   0.00   36.4    82    0.3    19     0.9   868.6    0.00 
 274    4:30   0.00   35.6    82    2.4   290     3.7   868.7    0.00 
 274    4:40   0.00   34.8    82    1.5    52     3.4   868.8    0.00 
 274    4:50   0.00   34.5    82    2.6   147     4.2   868.8    0.00 
 274    5:00   0.00   35.9    82    2.4   154     3.3   868.8    0.00 
 274    5:10   0.00   34.6    82    3.7   196     5.6   868.8    0.00 
 274    5:20   0.00   33.2    85    4.6   184     5.9   868.8    0.00 
 274    5:30   0.00   32.8    87    3.6   192     6.2   868.8    0.00 
 274    5:40   0.00   32.7    87    2.6   210     3.7   869.0    0.00 
 274    5:50   0.01   32.4    87    3.3   217     3.9   869.2    0.00 
 274    6:00   0.01   31.4    89    4.2   264     5.8   869.3    0.00 
 274    6:10   0.04   32.8    88    5.4   259     7.0   869.4    0.00 
 274    6:20   0.07   34.8    84    3.6   266     6.4   869.6    0.00 
 274    6:30   0.10   36.2    83    5.3   249     6.6   869.7    0.00 
 274    6:40   0.13   37.4    81    4.4   244     5.2   869.7    0.00 
 274    6:50   0.16   38.5    82    4.4   252     5.8   869.7    0.00 
 274    7:00   0.19   40.4    80    3.3   256     3.9   869.8    0.00 
 274    7:10   0.22   42.6    72    3.2   323     9.4   869.8    0.00 
 274    7:20   0.26   38.6    81    6.1    68     9.1   870.0    0.00 
 274    7:30   0.29   38.0    85    3.9    74     8.0   870.0    0.00 
 274    7:40   0.33   39.7    81    1.6    70     3.7   870.3    0.00 
 274    7:50   0.36   42.6    75    1.1   229     2.9   870.4    0.00 
 274    8:00   0.39   42.7    75    2.0   254     3.5   870.4    0.00 
 274    8:10   0.43   43.6    72    1.8   349     3.4   870.5    0.00 
 274    8:20   0.46   45.2    70    1.3    18     3.0   870.5    0.00 
 274    8:30   0.49   45.8    69    2.0    20     3.9   870.6    0.00 
 274    8:40   0.52   46.6    67    1.1    28     3.2   870.7    0.00 
 274    8:50   0.55   48.2    63    1.4   260     2.9   870.7    0.00 
 274    9:00   0.57   49.2    58    1.0   349     2.9   870.7    0.00 
 274    9:10   0.60   49.2    55    1.6    11     4.1   870.7    0.00 
 274    9:20   0.63   49.9    56    1.1    17     2.7   870.6    0.00 
 274    9:30   0.65   50.4    54    1.6    26     3.4   870.7    0.00 
 274    9:40   0.68   50.2    50    3.0    86     5.4   870.8    0.00 
 274    9:50   0.70   51.2    43    1.6   124     3.7   870.8    0.00 
 274   10:00   0.72   53.3    40    1.2    73     3.2   870.8    0.00 
 274   10:10   0.73   52.4    43    2.0   244     3.9   870.8    0.00 
 274   10:20   0.75   52.8    41    2.4   140     6.0   870.8    0.00 
 274   10:30   0.76   52.4    42    2.8   145     8.1   870.6    0.00 
 274   10:40   0.78   52.3    42    4.1   126     7.4   870.6    0.00 
 274   10:50   0.79   52.5    40    4.0   105     7.0   870.6    0.00 
 274   11:00   0.79   52.6    38    2.9    55     5.3   870.6    0.00 
 274   11:10   0.80   53.5    36    3.2    44     7.4   870.6    0.00 
 274   11:20   0.81   53.7    36    3.4    87     6.3   870.5    0.00 
 274   11:30   0.81   53.6    33    2.8    68     5.6   870.4    0.00 
 274   11:40   0.82   54.7    32    2.8   173     7.2   870.4    0.00 

Return to Paradise Valley graphs page.


Western Regional Climate Center,wrcc@dri.edu